createdAt,value
2023-05-05T00:00:29.294Z,2639.00
2023-05-05T00:01:29.210Z,2619.00
2023-05-05T00:02:29.198Z,2652.00
2023-05-05T00:03:29.072Z,2635.00
2023-05-05T00:04:28.897Z,2632.00
2023-05-05T00:05:28.823Z,2630.00
2023-05-05T00:06:28.703Z,2615.00
2023-05-05T00:07:28.613Z,2626.00
2023-05-05T00:08:28.505Z,2621.00
2023-05-05T00:09:28.368Z,2622.00
2023-05-05T00:10:28.256Z,2621.00
2023-05-05T00:11:28.140Z,2611.00
2023-05-05T00:12:28.040Z,2603.00
2023-05-05T00:13:27.919Z,2621.00
2023-05-05T00:14:27.783Z,2589.00
2023-05-05T00:15:27.659Z,2605.00
2023-05-05T00:16:27.550Z,2603.00
2023-05-05T00:17:27.366Z,2585.00
2023-05-05T00:18:27.226Z,2593.00
2023-05-05T00:19:27.093Z,2596.00
2023-05-05T00:20:26.979Z,2596.00
2023-05-05T00:21:26.866Z,2586.00
2023-05-05T00:22:26.763Z,2591.00
2023-05-05T00:23:26.639Z,2589.00
2023-05-05T00:24:26.513Z,2586.00
2023-05-05T00:25:26.393Z,2588.00
2023-05-05T00:26:26.304Z,2583.00
2023-05-05T00:27:26.165Z,2564.00
2023-05-05T00:28:26.063Z,2592.00
2023-05-05T00:29:25.969Z,2585.00
2023-05-05T00:30:25.867Z,2566.00
2023-05-05T00:31:25.791Z,2587.00
2023-05-05T00:32:25.680Z,2568.00
2023-05-05T00:33:25.554Z,2573.00
2023-05-05T00:34:25.460Z,2557.00
2023-05-05T00:35:25.371Z,2565.00
2023-05-05T00:36:25.296Z,2552.00
2023-05-05T00:37:25.187Z,2574.00
2023-05-05T00:38:25.081Z,2539.00
2023-05-05T00:39:24.982Z,2548.00
2023-05-05T00:40:24.902Z,2550.00
2023-05-05T00:41:24.802Z,2543.00
2023-05-05T00:42:24.714Z,2537.00
2023-05-05T00:43:24.619Z,2552.00
2023-05-05T00:44:24.535Z,2535.00
2023-05-05T00:45:24.427Z,2539.00
2023-05-05T00:46:24.335Z,2545.00
2023-05-05T00:47:24.199Z,2545.00
2023-05-05T00:48:24.001Z,2544.00
2023-05-05T00:49:23.862Z,2545.00
2023-05-05T00:50:23.704Z,2541.00
2023-05-05T00:51:23.513Z,2542.00
2023-05-05T00:52:23.362Z,2545.00
2023-05-05T00:53:23.192Z,2528.00
2023-05-05T00:54:23.030Z,2522.00
2023-05-05T00:55:22.891Z,2530.00
2023-05-05T00:56:22.807Z,2535.00
2023-05-05T00:57:22.702Z,2520.00
2023-05-05T00:58:22.600Z,2521.00
2023-05-05T00:59:22.519Z,2525.00
2023-05-05T01:00:22.414Z,2523.00
2023-05-05T01:01:22.303Z,2514.00
2023-05-05T01:02:22.192Z,2501.00
2023-05-05T01:03:22.125Z,2515.00
2023-05-05T01:04:21.945Z,2509.00
2023-05-05T01:05:21.809Z,2503.00
2023-05-05T01:06:21.663Z,2499.00
2023-05-05T01:07:21.540Z,2506.00
2023-05-05T01:08:21.403Z,2497.00
2023-05-05T01:09:21.278Z,2493.00
2023-05-05T01:10:21.248Z,2501.00
2023-05-05T01:11:21.077Z,2496.00
2023-05-05T01:12:20.958Z,2491.00
2023-05-05T01:13:20.824Z,2504.00
2023-05-05T01:14:20.705Z,2488.00
2023-05-05T01:15:20.567Z,2475.00
2023-05-05T01:16:20.497Z,2488.00
2023-05-05T01:17:20.351Z,2471.00
2023-05-05T01:18:20.207Z,2491.00
2023-05-05T01:19:20.073Z,2470.00
2023-05-05T01:20:19.954Z,2482.00
2023-05-05T01:21:19.783Z,2469.00
2023-05-05T01:22:19.651Z,2469.00
2023-05-05T01:23:19.532Z,2459.00
2023-05-05T01:24:19.405Z,2468.00
2023-05-05T01:25:19.330Z,2461.00
2023-05-05T01:26:19.253Z,2462.00
2023-05-05T01:27:19.139Z,2465.00
2023-05-05T01:28:19.033Z,2443.00
2023-05-05T01:29:18.948Z,2451.00
2023-05-05T01:30:18.841Z,2457.00
2023-05-05T01:31:18.739Z,2454.00
2023-05-05T01:32:18.638Z,2453.00
2023-05-05T01:33:18.526Z,2452.00
2023-05-05T01:34:18.426Z,2444.00
2023-05-05T01:35:18.352Z,2446.00
2023-05-05T01:36:18.275Z,2449.00
2023-05-05T01:37:18.137Z,2441.00
2023-05-05T01:38:18.019Z,2447.00
2023-05-05T01:39:17.916Z,2447.00
2023-05-05T01:40:17.800Z,2431.00
2023-05-05T01:41:17.742Z,2432.00
2023-05-05T01:42:17.658Z,2439.00
2023-05-05T01:43:17.549Z,2441.00
2023-05-05T01:44:17.406Z,2430.00
2023-05-05T01:45:17.285Z,2432.00
2023-05-05T01:46:17.278Z,2429.00
2023-05-05T01:47:17.127Z,2419.00
2023-05-05T01:48:16.977Z,2418.00
2023-05-05T01:49:16.882Z,2416.00
2023-05-05T01:50:16.785Z,2406.00
2023-05-05T01:51:16.690Z,2405.00
2023-05-05T01:52:16.590Z,2405.00
2023-05-05T01:53:16.483Z,2415.00
2023-05-05T01:54:16.369Z,2416.00
2023-05-05T01:55:16.274Z,2403.00
2023-05-05T01:56:16.190Z,2408.00
2023-05-05T01:57:16.088Z,2403.00
2023-05-05T01:58:15.956Z,2404.00
2023-05-05T01:59:15.758Z,2406.00
2023-05-05T02:00:15.586Z,2406.00
2023-05-05T02:01:15.438Z,2411.00
2023-05-05T02:02:15.304Z,2401.00
2023-05-05T02:03:15.192Z,2399.00
2023-05-05T02:04:14.931Z,2401.00
2023-05-05T02:05:14.765Z,2380.00
2023-05-05T02:06:14.616Z,2389.00
2023-05-05T02:07:14.436Z,2385.00
2023-05-05T02:08:14.281Z,2384.00
2023-05-05T02:09:14.119Z,2397.00
2023-05-05T02:10:13.940Z,2382.00
2023-05-05T02:11:13.821Z,2382.00
2023-05-05T02:12:13.686Z,2382.00
2023-05-05T02:13:13.652Z,2373.00
2023-05-05T02:14:13.447Z,2373.00
2023-05-05T02:15:13.357Z,2368.00
2023-05-05T02:16:13.211Z,2380.00
2023-05-05T02:17:13.079Z,2357.00
2023-05-05T02:18:12.958Z,2361.00
2023-05-05T02:19:12.827Z,2371.00
2023-05-05T02:20:12.714Z,2375.00
2023-05-05T02:21:12.583Z,2357.00
2023-05-05T02:22:12.451Z,2352.00
2023-05-05T02:23:12.361Z,2372.00
2023-05-05T02:24:12.278Z,2360.00
2023-05-05T02:25:12.140Z,2359.00
2023-05-05T02:26:12.046Z,2348.00
2023-05-05T02:27:11.948Z,2344.00
2023-05-05T02:28:11.811Z,2341.00
2023-05-05T02:29:11.686Z,2356.00
2023-05-05T02:30:11.599Z,2351.00
2023-05-05T02:31:11.566Z,2336.00
2023-05-05T02:32:11.394Z,2328.00
2023-05-05T02:33:11.319Z,2333.00
2023-05-05T02:34:11.200Z,2333.00
2023-05-05T02:35:11.114Z,2333.00
2023-05-05T02:36:11.008Z,2331.00
2023-05-05T02:37:10.892Z,2320.00
2023-05-05T02:38:10.751Z,2335.00
2023-05-05T02:39:10.652Z,2319.00
2023-05-05T02:40:10.686Z,2324.00
2023-05-05T02:41:10.406Z,2326.00
2023-05-05T02:42:10.312Z,2325.00
2023-05-05T02:43:10.262Z,2319.00
2023-05-05T02:44:10.112Z,2321.00
2023-05-05T02:45:10.047Z,2317.00
2023-05-05T02:46:09.970Z,2317.00
2023-05-05T02:47:09.823Z,2310.00
2023-05-05T02:48:09.727Z,2277.00
2023-05-05T02:49:09.557Z,2203.00
2023-05-05T02:50:09.606Z,2089.00
2023-05-05T02:51:09.298Z,2003.00
2023-05-05T02:52:09.150Z,1936.00
2023-05-05T02:53:08.972Z,1860.00
2023-05-05T02:54:08.841Z,1783.00
2023-05-05T02:55:08.686Z,1732.00
2023-05-05T02:56:08.545Z,1665.00
2023-05-05T02:57:08.394Z,1611.00
2023-05-05T02:58:08.294Z,1565.00
2023-05-05T02:59:08.155Z,1510.00
2023-05-05T03:00:08.192Z,1434.00
2023-05-05T03:01:08.000Z,1394.00
2023-05-05T03:02:07.797Z,1336.00
2023-05-05T03:03:07.849Z,1295.00
2023-05-05T03:04:07.730Z,1233.00
2023-05-05T03:05:07.525Z,1210.00
2023-05-05T03:06:07.427Z,1175.00
2023-05-05T03:07:07.323Z,1124.00
2023-05-05T03:08:07.221Z,1083.00
2023-05-05T03:09:07.125Z,1049.00
2023-05-05T03:10:07.231Z,1008.00
2023-05-05T03:11:06.935Z,966.00
2023-05-05T03:12:06.849Z,931.00
2023-05-05T03:13:06.784Z,910.00
2023-05-05T03:14:06.647Z,875.00
2023-05-05T03:15:06.558Z,843.00
2023-05-05T03:16:06.514Z,815.00
2023-05-05T03:17:06.400Z,783.00
2023-05-05T03:18:06.348Z,775.00
2023-05-05T03:19:06.096Z,741.00
2023-05-05T03:20:06.075Z,724.00
2023-05-05T03:21:05.862Z,707.00
2023-05-05T03:22:05.743Z,691.00
2023-05-05T03:23:05.646Z,667.00
2023-05-05T03:24:05.541Z,657.00
2023-05-05T03:25:05.428Z,657.00
2023-05-05T03:26:05.320Z,653.00
2023-05-05T03:27:05.237Z,645.00
2023-05-05T03:28:05.094Z,637.00
2023-05-05T03:29:05.000Z,639.00
2023-05-05T03:30:04.906Z,632.00
2023-05-05T03:31:04.743Z,629.00
2023-05-05T03:32:04.683Z,625.00
2023-05-05T03:33:04.523Z,617.00
2023-05-05T03:34:04.363Z,607.00
2023-05-05T03:35:04.250Z,607.00
2023-05-05T03:36:04.099Z,606.00
2023-05-05T03:37:03.961Z,604.00
2023-05-05T03:38:03.833Z,593.00
2023-05-05T03:39:03.729Z,586.00
2023-05-05T03:40:03.552Z,593.00
2023-05-05T03:41:03.482Z,588.00
2023-05-05T03:42:03.294Z,586.00
2023-05-05T03:43:03.170Z,585.00
2023-05-05T03:44:03.015Z,580.00
2023-05-05T03:45:02.886Z,582.00
2023-05-05T03:46:02.751Z,576.00
2023-05-05T03:47:02.620Z,570.00
2023-05-05T03:48:02.534Z,568.00
2023-05-05T03:49:02.340Z,575.00
2023-05-05T03:50:02.249Z,567.00
2023-05-05T03:51:02.070Z,571.00
2023-05-05T03:52:01.926Z,565.00
2023-05-05T03:53:01.814Z,561.00
2023-05-05T03:54:01.677Z,558.00
2023-05-05T03:55:01.560Z,563.00
2023-05-05T03:56:01.430Z,550.00
2023-05-05T03:57:01.318Z,554.00
2023-05-05T03:58:01.202Z,561.00
2023-05-05T03:59:01.066Z,552.00
2023-05-05T04:00:00.958Z,554.00
2023-05-05T04:01:00.864Z,566.00
2023-05-05T04:02:00.806Z,566.00
2023-05-05T04:03:00.590Z,564.00
2023-05-05T04:04:00.419Z,566.00
2023-05-05T04:05:00.252Z,567.00
2023-05-05T04:06:00.130Z,568.00
2023-05-05T04:06:59.952Z,571.00
2023-05-05T04:07:59.810Z,578.00
2023-05-05T04:08:59.663Z,577.00
2023-05-05T04:09:59.520Z,577.00
2023-05-05T04:10:59.357Z,572.00
2023-05-05T04:11:59.202Z,576.00
2023-05-05T04:12:59.125Z,580.00
2023-05-05T04:13:58.914Z,591.00
2023-05-05T04:14:58.775Z,590.00
2023-05-05T04:15:58.662Z,588.00
2023-05-05T04:16:58.485Z,585.00
2023-05-05T04:17:58.365Z,596.00
2023-05-05T04:18:58.191Z,587.00
2023-05-05T04:19:58.049Z,590.00
2023-05-05T04:20:57.899Z,588.00
2023-05-05T04:21:57.833Z,581.00
2023-05-05T04:22:57.638Z,580.00
2023-05-05T04:23:57.523Z,576.00
2023-05-05T04:24:57.405Z,588.00
2023-05-05T04:25:57.302Z,576.00
2023-05-05T04:26:57.192Z,587.00
2023-05-05T04:27:57.071Z,584.00
2023-05-05T04:28:56.951Z,585.00
2023-05-05T04:29:56.839Z,578.00
2023-05-05T04:30:56.762Z,578.00
2023-05-05T04:31:56.626Z,579.00
2023-05-05T04:32:56.639Z,563.00
2023-05-05T04:33:56.383Z,568.00
2023-05-05T04:34:56.280Z,563.00
2023-05-05T04:35:56.174Z,567.00
2023-05-05T04:36:56.061Z,565.00
2023-05-05T04:37:55.950Z,569.00
2023-05-05T04:38:55.887Z,568.00
2023-05-05T04:39:55.730Z,561.00
2023-05-05T04:40:55.599Z,567.00
2023-05-05T04:41:55.484Z,570.00
2023-05-05T04:42:55.368Z,568.00
2023-05-05T04:43:55.267Z,572.00
2023-05-05T04:44:55.146Z,570.00
2023-05-05T04:45:55.036Z,569.00
2023-05-05T04:46:54.941Z,576.00
2023-05-05T04:47:54.837Z,577.00
2023-05-05T04:48:54.692Z,573.00
2023-05-05T04:49:54.590Z,577.00
2023-05-05T04:50:54.470Z,574.00
2023-05-05T04:51:54.359Z,573.00
2023-05-05T04:52:54.251Z,578.00
2023-05-05T04:53:54.119Z,579.00
2023-05-05T04:54:54.010Z,572.00
2023-05-05T04:55:53.894Z,580.00
2023-05-05T04:56:53.810Z,579.00
2023-05-05T04:57:53.694Z,580.00
2023-05-05T04:58:53.571Z,568.00
2023-05-05T04:59:53.476Z,574.00
2023-05-05T05:00:53.343Z,587.00
2023-05-05T05:01:53.242Z,613.00
2023-05-05T05:02:53.185Z,615.00
2023-05-05T05:03:52.942Z,630.00
2023-05-05T05:04:52.766Z,618.00
2023-05-05T05:05:52.677Z,640.00
2023-05-05T05:06:52.462Z,695.00
2023-05-05T05:07:52.344Z,844.00
2023-05-05T05:08:52.175Z,1051.00
2023-05-05T05:09:52.008Z,1091.00
2023-05-05T05:10:51.844Z,1116.00
2023-05-05T05:11:51.687Z,1132.00
2023-05-05T05:12:51.545Z,1155.00
2023-05-05T05:13:51.411Z,1168.00
2023-05-05T05:14:51.315Z,1190.00
2023-05-05T05:15:51.234Z,1210.00
2023-05-05T05:16:51.230Z,1230.00
2023-05-05T05:17:51.079Z,1257.00
2023-05-05T05:18:50.964Z,1282.00
2023-05-05T05:19:50.869Z,1311.00
2023-05-05T05:20:50.754Z,1314.00
2023-05-05T05:21:50.675Z,1344.00
2023-05-05T05:22:50.533Z,1365.00
2023-05-05T05:23:50.435Z,1379.00
2023-05-05T05:24:50.254Z,1380.00
2023-05-05T05:25:50.113Z,1384.00
2023-05-05T05:26:49.938Z,1394.00
2023-05-05T05:27:58.549Z,1413.00
2023-05-05T05:28:50.637Z,1382.00
2023-05-05T05:29:49.537Z,1392.00
2023-05-05T05:30:49.321Z,1410.00
2023-05-05T05:31:49.247Z,1459.00
2023-05-05T05:32:49.000Z,1514.00
2023-05-05T05:33:48.857Z,1534.00
2023-05-05T05:34:48.685Z,1478.00
2023-05-05T05:35:48.532Z,1551.00
2023-05-05T05:36:48.387Z,1526.00
2023-05-05T05:37:48.229Z,1515.00
2023-05-05T05:38:48.157Z,1441.00
2023-05-05T05:39:47.904Z,1448.00
2023-05-05T05:40:47.761Z,1439.00
2023-05-05T05:41:47.593Z,1423.00
2023-05-05T05:42:47.459Z,1406.00
2023-05-05T05:43:47.310Z,1400.00
2023-05-05T05:44:47.138Z,1377.00
